Time;durP1;ratioP1;P1;durP2;ratioP2;P2;SDS_P1;SDS_P2;PMS_P1;PMS_P2;Temp;Humidity;BMP_temperature;BMP_pressure;BME280_temperature;BME280_humidity;BME280_pressure;Samples;Min_cycle;Max_cycle;Signal;HPM_P1;HPM_P2
2022/03/01 00:00:33;;;;;;;14.88;9.45;;;3.80;96.00;;;;;;5074208;28;20044;-71
2022/03/01 00:02:58;;;;;;;15.00;8.93;;;3.80;95.90;;;;;;5075481;28;20370;-71
2022/03/01 00:05:24;;;;;;;15.77;9.38;;;3.80;95.70;;;;;;5076625;28;20040;-71
2022/03/01 00:07:50;;;;;;;16.52;9.77;;;3.80;95.90;;;;;;5075477;28;20043;-71
2022/03/01 00:10:15;;;;;;;15.55;8.85;;;3.80;95.90;;;;;;5074180;28;20083;-72
2022/03/01 00:12:41;;;;;;;16.35;9.40;;;3.80;95.80;;;;;;5078957;28;20150;-72
2022/03/01 00:15:07;;;;;;;13.68;8.60;;;3.80;95.80;;;;;;5076667;28;20335;-71
2022/03/01 00:17:32;;;;;;;15.23;9.50;;;3.80;95.90;;;;;;5086814;28;20048;-72
2022/03/01 00:19:59;;;;;;;13.52;9.32;;;3.80;95.80;;;;;;5086140;28;20101;-71
2022/03/01 00:22:24;;;;;;;15.68;9.23;;;3.80;95.80;;;;;;5078611;28;20041;-72
2022/03/01 00:24:50;;;;;;;15.75;9.38;;;3.80;95.80;;;;;;5088301;28;20064;-72
2022/03/01 00:27:16;;;;;;;15.25;9.48;;;3.80;95.90;;;;;;5080128;28;20064;-72
2022/03/01 00:29:42;;;;;;;16.60;9.32;;;3.70;95.80;;;;;;5083932;28;20617;-72
2022/03/01 00:32:08;;;;;;;14.98;8.98;;;3.80;95.90;;;;;;5083211;28;20118;-72
2022/03/01 00:34:33;;;;;;;14.38;9.57;;;3.70;95.80;;;;;;5087431;28;20051;-72
2022/03/01 00:36:59;;;;;;;15.65;9.80;;;3.70;95.80;;;;;;5076607;28;20043;-71
2022/03/01 00:39:24;;;;;;;13.95;9.40;;;3.70;95.80;;;;;;5078808;28;20068;-72
2022/03/01 00:41:50;;;;;;;15.35;9.75;;;3.70;95.80;;;;;;5079415;28;20059;-72
2022/03/01 00:44:16;;;;;;;18.08;9.60;;;3.70;95.90;;;;;;5074614;28;20047;-72
2022/03/01 00:46:41;;;;;;;15.13;9.93;;;3.70;95.90;;;;;;5077986;28;20036;-72
2022/03/01 00:49:07;;;;;;;15.15;8.90;;;3.70;96.00;;;;;;5078759;28;20044;-71
2022/03/01 00:51:33;;;;;;;15.85;9.85;;;3.70;96.00;;;;;;5079868;28;20056;-72
2022/03/01 00:53:58;;;;;;;14.07;9.45;;;3.70;96.10;;;;;;5074601;28;20163;-71
2022/03/01 00:56:24;;;;;;;16.83;9.75;;;3.70;96.00;;;;;;5085244;28;20059;-72
2022/03/01 00:58:50;;;;;;;15.57;9.98;;;3.70;96.10;;;;;;5085354;28;20477;-70
2022/03/01 01:01:15;;;;;;;15.65;10.00;;;3.70;95.90;;;;;;5081316;28;20040;-71
2022/03/01 01:03:41;;;;;;;14.50;9.60;;;3.60;96.00;;;;;;5070837;28;20041;-72
2022/03/01 01:06:07;;;;;;;16.95;10.10;;;3.60;96.10;;;;;;5079690;28;20101;-71
2022/03/01 01:08:33;;;;;;;17.02;9.93;;;3.60;96.10;;;;;;5082586;28;20063;-72
2022/03/01 01:10:59;;;;;;;15.68;9.63;;;3.60;96.30;;;;;;5081849;28;20493;-72
2022/03/01 01:13:24;;;;;;;15.55;10.30;;;3.50;96.20;;;;;;5084521;28;20051;-71
2022/03/01 01:15:50;;;;;;;18.00;9.98;;;3.50;96.30;;;;;;5086954;28;20047;-72
2022/03/01 01:18:16;;;;;;;14.43;9.77;;;3.50;96.30;;;;;;5088788;28;20149;-70
2022/03/01 01:20:41;;;;;;;14.38;9.45;;;3.50;96.40;;;;;;5087409;28;20032;-72
2022/03/01 01:23:07;;;;;;;16.00;9.73;;;3.50;96.40;;;;;;5084431;28;20072;-71
2022/03/01 01:25:34;;;;;;;15.15;9.48;;;3.50;96.50;;;;;;5084034;28;20064;-72
2022/03/01 01:28:00;;;;;;;15.95;10.27;;;3.50;96.60;;;;;;5088941;28;20048;-72
2022/03/01 01:30:29;;;;;;;16.30;10.50;;;3.50;96.80;;;;;;5090051;28;20149;-72
2022/03/01 01:32:55;;;;;;;15.90;9.88;;;3.40;96.80;;;;;;5091179;28;20032;-72
2022/03/01 01:35:23;;;;;;;14.50;9.65;;;3.50;97.00;;;;;;5085742;28;20046;-72
2022/03/01 01:37:50;;;;;;;16.45;9.63;;;3.40;96.80;;;;;;5083005;28;20513;-71
2022/03/01 01:40:20;;;;;;;19.55;9.85;;;3.40;97.20;;;;;;5088517;28;20047;-72
2022/03/01 01:42:46;;;;;;;16.75;9.80;;;3.30;97.00;;;;;;5090067;28;20036;-72
2022/03/01 01:45:12;;;;;;;15.50;9.68;;;3.30;97.10;;;;;;5091036;28;20040;-73
2022/03/01 01:47:37;;;;;;;15.38;10.30;;;3.30;97.20;;;;;;5091644;28;20479;-71
2022/03/01 01:50:05;;;;;;;14.23;9.60;;;3.30;97.30;;;;;;5077047;28;20041;-72
2022/03/01 01:52:30;;;;;;;14.90;9.90;;;3.30;97.30;;;;;;5081308;28;20067;-72
2022/03/01 01:54:56;;;;;;;17.15;10.35;;;3.30;97.30;;;;;;5086506;28;20072;-73
2022/03/01 01:57:24;;;;;;;15.82;10.13;;;3.30;97.40;;;;;;5087773;28;20128;-73
2022/03/01 01:59:51;;;;;;;15.77;10.40;;;3.20;97.40;;;;;;5084174;28;20087;-72
2022/03/01 02:02:19;;;;;;;17.05;10.30;;;3.20;97.50;;;;;;5089320;28;20135;-72
2022/03/01 02:04:45;;;;;;;16.73;10.02;;;3.20;97.50;;;;;;5086641;28;20036;-72
2022/03/01 02:07:12;;;;;;;14.35;9.57;;;3.20;97.50;;;;;;5089867;28;20047;-73
2022/03/01 02:09:38;;;;;;;16.05;9.85;;;3.20;97.50;;;;;;5084057;28;20044;-72
2022/03/01 02:12:04;;;;;;;15.77;9.95;;;3.20;97.60;;;;;;5088637;28;20047;-72
2022/03/01 02:14:32;;;;;;;15.30;9.73;;;3.20;97.60;;;;;;5089174;28;20477;-72
2022/03/01 02:17:03;;;;;;;15.10;9.88;;;3.20;97.60;;;;;;5090559;28;20032;-72
2022/03/01 02:19:29;;;;;;;15.85;9.65;;;3.20;97.90;;;;;;5090459;28;20044;-70
2022/03/01 02:21:56;;;;;;;17.88;10.30;;;3.20;97.60;;;;;;5080220;28;20062;-73
2022/03/01 02:24:23;;;;;;;14.75;9.57;;;3.20;97.70;;;;;;5074049;28;20431;-73
2022/03/01 02:26:49;;;;;;;17.25;9.75;;;3.20;97.80;;;;;;5074580;28;20050;-73
2022/03/01 02:29:15;;;;;;;15.50;10.00;;;3.20;97.70;;;;;;5082785;28;20032;-72
2022/03/01 02:31:40;;;;;;;16.48;10.05;;;3.20;97.60;;;;;;5090928;28;20032;-72
2022/03/01 02:34:06;;;;;;;17.20;10.00;;;3.20;97.70;;;;;;5079378;28;20130;-72
2022/03/01 02:36:32;;;;;;;18.00;10.73;;;3.20;97.80;;;;;;5087938;28;20161;-71
2022/03/01 02:38:58;;;;;;;14.85;9.60;;;3.20;97.80;;;;;;5081825;28;20052;-72
2022/03/01 02:41:25;;;;;;;17.55;10.43;;;3.20;97.90;;;;;;5080777;28;20145;-72
2022/03/01 02:43:51;;;;;;;15.80;10.02;;;3.20;97.90;;;;;;5083914;28;20476;-72
2022/03/01 02:46:17;;;;;;;16.02;10.20;;;3.20;98.00;;;;;;5077168;28;20032;-72
2022/03/01 02:48:42;;;;;;;19.67;11.43;;;3.20;98.00;;;;;;5076154;28;20808;-71
2022/03/01 02:51:08;;;;;;;16.60;9.70;;;3.20;98.10;;;;;;5082970;28;20093;-72
2022/03/01 02:53:34;;;;;;;15.60;9.50;;;3.20;98.10;;;;;;5079466;28;20094;-71
2022/03/01 02:56:00;;;;;;;15.57;10.10;;;3.20;98.10;;;;;;5075575;28;20108;-72
2022/03/01 02:58:25;;;;;;;16.60;9.68;;;3.10;98.10;;;;;;5079671;28;20056;-71
2022/03/01 03:00:51;;;;;;;16.95;10.32;;;3.20;98.10;;;;;;5075911;28;20049;-71
2022/03/01 03:03:17;;;;;;;17.45;10.88;;;3.10;98.20;;;;;;5093001;27;20043;-71
2022/03/01 03:05:42;;;;;;;18.30;10.32;;;3.10;98.30;;;;;;5077863;28;20045;-72
2022/03/01 03:08:08;;;;;;;15.90;9.85;;;3.10;98.30;;;;;;5077593;28;20125;-72
2022/03/01 03:10:34;;;;;;;15.55;10.30;;;3.10;98.30;;;;;;5075865;28;20040;-72
2022/03/01 03:13:01;;;;;;;16.13;10.85;;;3.10;98.40;;;;;;5077819;28;20044;-72
2022/03/01 03:15:27;;;;;;;15.57;10.05;;;3.10;98.50;;;;;;5075082;28;20044;-71
2022/03/01 03:17:53;;;;;;;17.48;10.65;;;3.10;98.50;;;;;;5092077;28;20049;-71
2022/03/01 03:20:19;;;;;;;15.45;10.32;;;3.10;98.50;;;;;;5073670;28;20055;-71
2022/03/01 03:22:44;;;;;;;16.60;10.32;;;3.10;98.50;;;;;;5073200;28;20458;-71
2022/03/01 03:25:11;;;;;;;16.63;10.68;;;3.10;98.50;;;;;;5090127;28;20170;-72
2022/03/01 03:27:37;;;;;;;16.25;10.65;;;3.10;98.70;;;;;;5082131;28;20093;-72
2022/03/01 03:30:04;;;;;;;15.73;10.23;;;3.20;99.00;;;;;;5077167;28;20266;-71
2022/03/01 03:32:31;;;;;;;18.75;10.60;;;3.10;98.70;;;;;;5075936;28;20437;-71
2022/03/01 03:34:56;;;;;;;16.35;10.35;;;3.10;98.70;;;;;;5075784;28;20044;-72
2022/03/01 03:37:22;;;;;;;16.95;10.45;;;3.10;98.80;;;;;;5076954;28;20461;-72
2022/03/01 03:39:48;;;;;;;17.00;10.32;;;3.10;98.80;;;;;;5076004;28;20051;-72
2022/03/01 03:42:13;;;;;;;18.80;10.73;;;3.10;98.80;;;;;;5079770;28;21218;-72
2022/03/01 03:44:39;;;;;;;17.90;10.77;;;3.10;98.90;;;;;;5073614;28;20071;-72
2022/03/01 03:47:06;;;;;;;19.60;11.35;;;3.20;98.90;;;;;;5080201;28;20462;-73
2022/03/01 03:49:32;;;;;;;17.33;10.80;;;3.20;98.90;;;;;;5083995;28;20154;-72
2022/03/01 03:51:59;;;;;;;17.08;10.32;;;3.20;98.90;;;;;;5082857;28;20163;-73
2022/03/01 03:54:25;;;;;;;15.95;10.55;;;3.20;99.00;;;;;;5080428;28;20055;-73
2022/03/01 03:56:50;;;;;;;16.30;10.80;;;3.20;99.10;;;;;;5077039;28;20101;-72
2022/03/01 03:59:16;;;;;;;18.13;11.15;;;3.20;99.10;;;;;;5080990;28;20036;-71
2022/03/01 04:01:41;;;;;;;14.85;10.45;;;3.20;99.20;;;;;;5080342;28;20118;-72
2022/03/01 04:04:08;;;;;;;16.13;10.80;;;3.20;99.30;;;;;;5078875;28;20529;-72
2022/03/01 04:06:34;;;;;;;16.50;10.75;;;3.20;99.40;;;;;;5082161;28;20128;-72
2022/03/01 04:09:00;;;;;;;16.02;10.20;;;3.20;99.50;;;;;;5077449;28;20055;-73
2022/03/01 04:11:26;;;;;;;16.85;10.40;;;3.20;99.50;;;;;;5080932;28;20103;-73
2022/03/01 04:13:52;;;;;;;16.88;10.63;;;3.20;99.40;;;;;;5077368;28;20036;-72
2022/03/01 04:16:19;;;;;;;16.67;10.20;;;3.20;99.50;;;;;;5089224;28;20070;-72
2022/03/01 04:18:44;;;;;;;18.33;10.85;;;3.10;99.40;;;;;;5113542;27;20588;-72
2022/03/01 04:21:10;;;;;;;16.77;10.30;;;3.20;99.40;;;;;;5080013;28;20251;-72
2022/03/01 04:23:37;;;;;;;15.55;10.57;;;3.20;99.40;;;;;;5087268;28;20486;-71
2022/03/01 04:26:03;;;;;;;18.52;10.95;;;3.10;99.40;;;;;;5079656;28;20057;-73
2022/03/01 04:28:29;;;;;;;18.08;11.20;;;3.20;99.50;;;;;;5082709;28;20063;-71
2022/03/01 04:30:55;;;;;;;16.85;10.45;;;3.20;99.50;;;;;;5084563;28;20128;-73
2022/03/01 04:33:21;;;;;;;16.10;10.30;;;3.20;99.60;;;;;;5083689;28;20695;-72
2022/03/01 04:35:46;;;;;;;19.52;11.45;;;3.10;99.60;;;;;;5086616;28;20090;-73
2022/03/01 04:38:12;;;;;;;16.88;10.40;;;3.10;99.70;;;;;;5083356;28;20051;-72
2022/03/01 04:40:38;;;;;;;18.02;11.75;;;3.10;99.80;;;;;;5083819;28;20052;-72
2022/03/01 04:43:04;;;;;;;16.45;10.90;;;3.10;99.80;;;;;;5075512;28;20116;-72
2022/03/01 04:45:30;;;;;;;16.10;10.75;;;3.10;99.90;;;;;;5087506;28;20078;-72
2022/03/01 04:47:57;;;;;;;18.15;10.95;;;3.10;99.90;;;;;;5080945;28;20179;-73
2022/03/01 04:50:23;;;;;;;17.35;11.15;;;3.10;99.90;;;;;;5079537;28;20056;-72
2022/03/01 04:52:48;;;;;;;17.52;11.27;;;3.10;99.90;;;;;;5089691;28;20134;-72
2022/03/01 04:55:15;;;;;;;17.70;11.32;;;3.10;99.90;;;;;;5099070;28;20059;-71
2022/03/01 04:57:42;;;;;;;18.05;11.48;;;3.10;99.90;;;;;;5085716;28;20116;-73
2022/03/01 05:00:10;;;;;;;16.05;10.93;;;3.10;99.90;;;;;;5078561;28;20103;-72
2022/03/01 05:02:38;;;;;;;17.83;11.10;;;3.10;99.90;;;;;;5078442;28;20137;-71
2022/03/01 05:05:04;;;;;;;18.67;11.70;;;3.10;99.90;;;;;;5080425;28;20055;-72
2022/03/01 05:07:29;;;;;;;16.88;10.82;;;3.10;99.90;;;;;;5057068;28;20059;-71
2022/03/01 05:09:55;;;;;;;17.15;10.70;;;3.20;99.90;;;;;;5076626;28;20048;-72
2022/03/01 05:12:20;;;;;;;18.45;10.85;;;3.20;99.90;;;;;;5078169;28;20043;-72
2022/03/01 05:14:46;;;;;;;18.13;10.88;;;3.10;99.90;;;;;;5057585;28;20044;-72
2022/03/01 05:17:12;;;;;;;16.25;10.77;;;3.10;99.90;;;;;;5056406;28;20036;-72
2022/03/01 05:19:37;;;;;;;18.00;10.38;;;3.20;99.90;;;;;;5075075;28;20054;-72
2022/03/01 05:22:03;;;;;;;17.10;10.93;;;3.20;99.90;;;;;;5055907;28;20132;-71
2022/03/01 05:24:29;;;;;;;17.60;11.63;;;3.20;99.90;;;;;;5076244;28;20029;-71
2022/03/01 05:26:55;;;;;;;16.77;10.65;;;3.20;99.90;;;;;;5073728;28;20052;-73
2022/03/01 05:29:21;;;;;;;18.08;11.40;;;3.20;99.90;;;;;;5075870;28;20442;-73
2022/03/01 05:31:47;;;;;;;18.52;11.00;;;3.20;99.90;;;;;;5079215;28;20044;-72
2022/03/01 05:34:13;;;;;;;17.05;11.07;;;3.20;99.90;;;;;;5109277;27;20135;-73
2022/03/01 05:36:39;;;;;;;16.85;10.98;;;3.10;99.90;;;;;;5076397;28;20077;-73
2022/03/01 05:39:04;;;;;;;18.15;11.30;;;3.10;99.90;;;;;;5077097;28;20393;-72
2022/03/01 05:41:30;;;;;;;17.42;11.00;;;3.20;99.90;;;;;;5076792;28;21764;-72
2022/03/01 05:43:55;;;;;;;18.65;11.50;;;3.10;99.90;;;;;;5078610;28;20447;-72
2022/03/01 05:46:21;;;;;;;15.65;10.38;;;3.10;99.90;;;;;;5090606;28;20052;-72
2022/03/01 05:48:47;;;;;;;19.50;10.95;;;3.10;99.90;;;;;;5079993;28;20086;-72
2022/03/01 05:51:12;;;;;;;18.20;10.77;;;3.10;99.90;;;;;;5072092;28;20040;-73
2022/03/01 05:53:38;;;;;;;17.45;11.25;;;3.10;99.90;;;;;;5078316;28;20048;-72
2022/03/01 05:56:04;;;;;;;17.60;11.07;;;3.10;99.90;;;;;;5075341;28;20099;-72
2022/03/01 05:58:29;;;;;;;19.95;11.63;;;3.10;99.90;;;;;;5079643;28;20130;-72
2022/03/01 06:00:55;;;;;;;17.00;11.00;;;3.10;99.90;;;;;;5078721;28;20549;-72
2022/03/01 06:03:20;;;;;;;17.77;11.43;;;3.10;99.90;;;;;;5075865;28;20048;-72
2022/03/01 06:05:46;;;;;;;18.83;11.70;;;3.10;99.90;;;;;;5081515;28;20036;-74
2022/03/01 06:08:12;;;;;;;19.80;11.60;;;3.00;99.90;;;;;;5083861;28;20068;-75
2022/03/01 06:10:37;;;;;;;17.92;11.23;;;3.00;99.90;;;;;;5083797;28;20044;-74
2022/03/01 06:13:03;;;;;;;20.00;11.68;;;3.00;99.90;;;;;;5095594;27;20044;-74
2022/03/01 06:15:28;;;;;;;17.67;11.13;;;3.00;99.90;;;;;;5080573;28;20465;-70
2022/03/01 06:17:54;;;;;;;17.85;10.77;;;3.00;99.90;;;;;;5081597;28;20112;-72
2022/03/01 06:20:19;;;;;;;17.30;11.20;;;3.10;99.90;;;;;;5082476;28;20163;-73
2022/03/01 06:22:45;;;;;;;18.50;11.88;;;3.10;99.90;;;;;;5085651;28;20429;-74
2022/03/01 06:25:11;;;;;;;15.95;10.63;;;3.10;99.90;;;;;;5083696;28;20522;-72
2022/03/01 06:27:38;;;;;;;16.83;11.07;;;3.10;99.90;;;;;;5092179;28;20068;-71
2022/03/01 06:30:05;;;;;;;18.65;11.32;;;3.10;99.90;;;;;;5077379;28;20125;-72
2022/03/01 06:32:31;;;;;;;18.63;11.77;;;3.20;99.90;;;;;;5103990;27;20092;-70
2022/03/01 06:34:57;;;;;;;17.88;11.27;;;3.20;99.90;;;;;;5073280;28;20105;-70
2022/03/01 06:37:22;;;;;;;18.25;11.68;;;3.20;99.90;;;;;;5078955;28;20137;-70
2022/03/01 06:39:50;;;;;;;17.92;11.35;;;3.20;99.90;;;;;;5082395;28;20084;-70
2022/03/01 06:42:17;;;;;;;17.27;11.35;;;3.30;99.90;;;;;;5091978;28;20394;-70
2022/03/01 06:44:43;;;;;;;19.08;11.60;;;3.20;99.90;;;;;;5086352;28;20082;-71
2022/03/01 06:47:09;;;;;;;19.75;11.80;;;3.30;99.90;;;;;;5081868;28;20101;-69
2022/03/01 06:49:35;;;;;;;16.67;11.80;;;3.30;99.90;;;;;;5068598;28;20493;-70
2022/03/01 06:52:01;;;;;;;19.70;12.32;;;3.40;99.90;;;;;;5089256;28;20115;-69
2022/03/01 06:54:27;;;;;;;18.20;11.63;;;3.40;99.90;;;;;;5073628;28;20405;-70
2022/03/01 06:56:52;;;;;;;17.55;11.73;;;3.40;99.90;;;;;;5080688;28;20044;-70
2022/03/01 06:59:18;;;;;;;17.55;11.35;;;3.50;99.90;;;;;;5081434;28;20056;-71
2022/03/01 07:01:43;;;;;;;17.60;11.60;;;3.50;99.90;;;;;;5081152;28;20101;-70
2022/03/01 07:04:09;;;;;;;19.17;12.07;;;3.50;99.90;;;;;;5082085;28;20184;-71
2022/03/01 07:06:34;;;;;;;16.25;10.32;;;3.60;99.90;;;;;;5084318;28;20196;-70
2022/03/01 07:09:00;;;;;;;18.55;10.88;;;3.70;99.90;;;;;;5083099;28;20040;-70
2022/03/01 07:11:26;;;;;;;19.33;11.25;;;3.70;99.80;;;;;;5080639;28;20124;-70
2022/03/01 07:13:51;;;;;;;19.35;11.55;;;3.70;99.90;;;;;;5078797;28;20045;-70
2022/03/01 07:16:17;;;;;;;15.63;10.85;;;3.80;99.80;;;;;;5082496;28;20086;-70
2022/03/01 07:18:44;;;;;;;18.73;12.02;;;3.90;99.70;;;;;;5082558;28;20048;-69
2022/03/01 07:21:10;;;;;;;19.30;11.75;;;3.90;99.70;;;;;;5079523;28;20124;-69
2022/03/01 07:23:36;;;;;;;17.45;11.57;;;3.90;99.50;;;;;;5085069;28;20177;-69
2022/03/01 07:26:04;;;;;;;21.35;11.75;;;4.00;99.40;;;;;;5084038;28;20045;-70
2022/03/01 07:28:30;;;;;;;18.73;11.63;;;4.00;99.30;;;;;;5081754;28;20063;-69
2022/03/01 07:30:56;;;;;;;19.73;12.10;;;4.10;99.20;;;;;;5086855;28;20044;-71
2022/03/01 07:33:21;;;;;;;17.83;11.88;;;4.10;99.00;;;;;;5088159;28;20052;-70
2022/03/01 07:35:47;;;;;;;19.77;11.95;;;4.10;99.00;;;;;;5081466;28;20067;-72
2022/03/01 07:38:12;;;;;;;18.45;11.43;;;4.20;98.90;;;;;;5070246;28;20378;-70
2022/03/01 07:40:38;;;;;;;20.65;12.02;;;4.20;98.80;;;;;;5088539;28;20394;-70
2022/03/01 07:43:03;;;;;;;18.30;12.32;;;4.20;98.70;;;;;;5085835;28;20059;-70
2022/03/01 07:45:29;;;;;;;19.42;11.90;;;4.30;98.70;;;;;;5087353;28;20044;-70
2022/03/01 07:47:56;;;;;;;21.02;12.20;;;4.30;98.60;;;;;;5086178;28;20540;-71
2022/03/01 07:50:22;;;;;;;17.40;12.07;;;4.30;98.60;;;;;;5086053;28;20132;-71
2022/03/01 07:52:47;;;;;;;18.20;12.18;;;4.40;98.70;;;;;;5087987;28;20043;-70
2022/03/01 07:55:14;;;;;;;18.52;12.02;;;4.40;98.60;;;;;;5085526;28;20109;-70
2022/03/01 07:57:39;;;;;;;17.38;12.30;;;4.40;98.60;;;;;;5084256;28;20067;-70
2022/03/01 08:00:09;;;;;;;22.15;12.80;;;4.50;98.50;;;;;;5068792;28;20459;-70
2022/03/01 08:02:36;;;;;;;21.45;11.95;;;4.50;98.20;;;;;;5089533;28;20131;-70
2022/03/01 08:05:03;;;;;;;17.77;10.98;;;4.50;98.20;;;;;;5080345;28;20068;-70
2022/03/01 08:07:29;;;;;;;18.23;11.77;;;4.50;98.10;;;;;;5068168;28;20063;-70
2022/03/01 08:09:54;;;;;;;19.65;11.93;;;4.50;97.90;;;;;;5075021;28;20044;-71
2022/03/01 08:12:20;;;;;;;19.42;12.20;;;4.50;97.90;;;;;;5082428;28;20037;-71
2022/03/01 08:14:45;;;;;;;20.08;12.63;;;4.60;97.90;;;;;;5083034;28;20040;-70
2022/03/01 08:17:11;;;;;;;17.73;12.02;;;4.60;97.90;;;;;;5067096;28;20056;-70
2022/03/01 08:19:36;;;;;;;17.30;11.10;;;4.60;97.80;;;;;;5071535;28;20040;-70
2022/03/01 08:22:02;;;;;;;19.45;12.27;;;4.70;97.80;;;;;;5087457;28;20362;-70
2022/03/01 08:24:28;;;;;;;18.45;11.68;;;4.70;97.70;;;;;;5084123;28;20083;-71
2022/03/01 08:26:54;;;;;;;18.52;11.95;;;4.80;97.70;;;;;;5067423;28;20045;-70
2022/03/01 08:29:20;;;;;;;22.13;12.80;;;4.80;97.50;;;;;;5069190;28;20052;-70
2022/03/01 08:31:46;;;;;;;20.13;12.93;;;4.90;97.50;;;;;;5068582;28;20052;-70
2022/03/01 08:34:13;;;;;;;18.20;11.88;;;5.00;97.40;;;;;;5089414;28;20048;-70
2022/03/01 08:36:38;;;;;;;19.58;12.15;;;5.00;97.30;;;;;;5090580;28;20092;-70
2022/03/01 08:39:04;;;;;;;19.63;12.50;;;5.10;97.10;;;;;;5122646;27;20044;-72
2022/03/01 08:41:31;;;;;;;20.48;12.50;;;5.20;97.10;;;;;;5087959;28;20040;-71
2022/03/01 08:43:56;;;;;;;19.90;12.43;;;5.30;96.80;;;;;;5089469;28;20545;-71
2022/03/01 08:46:23;;;;;;;20.38;12.38;;;5.40;96.60;;;;;;5090318;28;20182;-71
2022/03/01 08:48:53;;;;;;;17.35;11.93;;;5.50;96.40;;;;;;5086095;28;20089;-72
2022/03/01 08:51:21;;;;;;;20.45;12.35;;;5.60;96.40;;;;;;5086261;28;20040;-72
2022/03/01 08:53:47;;;;;;;17.73;11.95;;;5.60;96.00;;;;;;5086532;28;20141;-72
2022/03/01 08:56:14;;;;;;;19.17;12.27;;;5.70;95.90;;;;;;5089227;28;20490;-72
2022/03/01 08:58:40;;;;;;;17.58;12.05;;;5.80;95.80;;;;;;5089593;28;20523;-72
2022/03/01 09:01:05;;;;;;;18.35;12.23;;;5.90;95.50;;;;;;5087205;28;20090;-72
2022/03/01 09:03:33;;;;;;;18.73;12.20;;;6.00;95.40;;;;;;5056121;28;20103;-71
2022/03/01 09:05:58;;;;;;;18.15;11.73;;;6.10;95.00;;;;;;5089357;28;20044;-72
2022/03/01 09:08:24;;;;;;;16.48;12.00;;;6.20;94.80;;;;;;5089228;28;20047;-72
2022/03/01 09:10:49;;;;;;;18.33;11.88;;;6.20;94.70;;;;;;5090205;28;20048;-72
2022/03/01 09:13:15;;;;;;;16.45;11.50;;;6.30;94.60;;;;;;5088921;28;20040;-72
2022/03/01 09:15:40;;;;;;;18.20;12.68;;;6.50;94.70;;;;;;5080419;28;20048;-72
2022/03/01 09:18:06;;;;;;;18.77;12.38;;;6.50;93.90;;;;;;5070912;28;20036;-72
2022/03/01 09:20:33;;;;;;;18.08;11.60;;;6.70;93.90;;;;;;5086425;28;20827;-71
2022/03/01 09:22:59;;;;;;;18.13;11.90;;;6.80;93.60;;;;;;5090306;28;20040;-72
2022/03/01 09:25:25;;;;;;;18.25;12.63;;;6.90;93.20;;;;;;5074516;28;20049;-72
2022/03/01 09:27:52;;;;;;;18.00;12.27;;;7.00;92.80;;;;;;5069159;28;20037;-72
2022/03/01 09:30:18;;;;;;;17.10;11.10;;;7.10;92.50;;;;;;5068856;28;20049;-72
2022/03/01 09:32:44;;;;;;;17.33;12.10;;;7.10;92.20;;;;;;5088653;28;20055;-71
2022/03/01 09:35:10;;;;;;;18.08;12.38;;;7.10;91.80;;;;;;5078885;28;20058;-71
2022/03/01 09:37:36;;;;;;;21.10;12.02;;;7.10;91.90;;;;;;5070071;28;20071;-71
2022/03/01 09:40:05;;;;;;;17.40;11.30;;;7.10;91.80;;;;;;5102296;27;20059;-71
2022/03/01 09:42:31;;;;;;;17.80;11.93;;;7.00;91.20;;;;;;5069536;28;20374;-70
2022/03/01 09:44:58;;;;;;;17.13;11.52;;;7.00;90.90;;;;;;5069160;28;20134;-71
2022/03/01 09:47:24;;;;;;;16.90;12.07;;;7.00;91.10;;;;;;5086118;28;20093;-70
2022/03/01 09:49:51;;;;;;;16.70;12.32;;;7.00;91.20;;;;;;5087348;28;20115;-70
2022/03/01 09:52:18;;;;;;;16.70;12.00;;;7.00;91.00;;;;;;5090754;28;20040;-70
2022/03/01 09:54:44;;;;;;;16.02;11.63;;;7.00;88.80;;;;;;5083718;28;20041;-70
2022/03/01 09:57:14;;;;;;;17.40;11.90;;;7.00;90.20;;;;;;5072352;28;20036;-71
2022/03/01 09:59:39;;;;;;;17.70;11.85;;;7.00;90.70;;;;;;5088786;28;20046;-70
2022/03/01 10:02:05;;;;;;;17.58;11.95;;;7.10;90.70;;;;;;5078573;28;20298;-70
2022/03/01 10:04:30;;;;;;;17.85;11.77;;;7.10;90.40;;;;;;5090730;28;20059;-70
2022/03/01 10:06:56;;;;;;;15.68;11.15;;;7.20;90.90;;;;;;5089283;28;20076;-70
2022/03/01 10:09:24;;;;;;;16.92;11.73;;;7.30;91.10;;;;;;5089043;28;20081;-69
2022/03/01 10:11:51;;;;;;;18.58;12.48;;;7.20;87.90;;;;;;5063220;28;20343;-71
2022/03/01 10:14:31;;;;;;;17.52;11.82;;;7.20;88.80;;;;;;5071242;28;20106;-71
2022/03/01 10:16:57;;;;;;;18.38;11.48;;;7.30;87.90;;;;;;5070825;28;20119;-71
2022/03/01 10:19:23;;;;;;;17.05;11.52;;;7.30;89.70;;;;;;5069264;28;20128;-71
2022/03/01 10:22:01;;;;;;;17.90;11.02;;;7.40;88.60;;;;;;5069570;28;20476;-71
2022/03/01 10:24:28;;;;;;;18.23;12.63;;;7.50;85.70;;;;;;5100885;28;20040;-71
2022/03/01 10:26:58;;;;;;;19.92;12.45;;;7.60;87.80;;;;;;5088970;28;20132;-71
2022/03/01 10:29:28;;;;;;;17.92;12.13;;;7.70;86.80;;;;;;5088809;28;20087;-69
2022/03/01 10:31:59;;;;;;;19.77;12.00;;;7.90;86.10;;;;;;5096342;28;20078;-69
2022/03/01 10:34:26;;;;;;;15.77;11.27;;;8.00;87.20;;;;;;5089512;28;20339;-71
2022/03/01 10:36:52;;;;;;;17.83;11.90;;;8.20;86.20;;;;;;5087882;28;20119;-72
2022/03/01 10:39:36;;;;;;;18.15;11.57;;;8.30;86.20;;;;;;5087915;28;20043;-72
2022/03/01 10:42:03;;;;;;;18.05;12.05;;;8.40;84.80;;;;;;5082911;28;20139;-72
2022/03/01 10:44:30;;;;;;;16.63;12.20;;;8.60;85.70;;;;;;5101375;27;20056;-72
2022/03/01 10:47:00;;;;;;;16.60;11.27;;;8.70;84.80;;;;;;5083985;28;20100;-72
2022/03/01 10:49:27;;;;;;;19.02;12.10;;;8.90;84.60;;;;;;5067088;28;20140;-73
2022/03/01 10:52:14;;;;;;;19.33;11.95;;;8.90;83.50;;;;;;5078272;28;20059;-73
2022/03/01 10:54:41;;;;;;;17.90;11.95;;;9.00;81.40;;;;;;5093449;28;20053;-72
2022/03/01 10:57:19;;;;;;;16.75;11.85;;;9.00;81.50;;;;;;5069029;28;20044;-72
2022/03/01 10:59:46;;;;;;;16.27;11.20;;;9.00;77.40;;;;;;5086856;28;20090;-72
2022/03/01 11:02:12;;;;;;;17.02;11.45;;;9.10;79.80;;;;;;5076702;28;20044;-72
2022/03/01 11:04:37;;;;;;;14.05;11.13;;;9.10;80.70;;;;;;5082605;28;20059;-72
2022/03/01 11:07:05;;;;;;;16.13;11.35;;;9.10;80.20;;;;;;5067627;28;20105;-72
2022/03/01 11:09:33;;;;;;;18.35;12.30;;;9.30;80.60;;;;;;5067081;28;20045;-72
2022/03/01 11:12:00;;;;;;;15.85;11.82;;;9.40;80.40;;;;;;5081636;28;20090;-72
2022/03/01 11:14:34;;;;;;;16.20;11.80;;;9.50;79.70;;;;;;5069571;28;20036;-73
2022/03/01 11:17:18;;;;;;;17.70;12.00;;;9.60;79.70;;;;;;5088842;28;20055;-72
2022/03/01 11:20:14;;;;;;;15.82;11.55;;;9.80;79.40;;;;;;5080040;28;20123;-72
2022/03/01 11:22:53;;;;;;;16.55;11.68;;;10.00;78.90;;;;;;5083838;28;20438;-72
2022/03/01 11:25:22;;;;;;;17.30;12.20;;;10.00;77.00;;;;;;5085227;28;20112;-72
2022/03/01 11:27:50;;;;;;;16.77;11.95;;;10.20;77.50;;;;;;5069434;28;20055;-72
2022/03/01 11:30:17;;;;;;;15.57;11.95;;;10.30;76.10;;;;;;5079710;28;20438;-72
2022/03/01 11:32:45;;;;;;;18.58;12.32;;;10.00;72.40;;;;;;5074503;28;20150;-72
2022/03/01 11:35:23;;;;;;;17.48;12.23;;;10.00;73.30;;;;;;5086746;28;20044;-73
2022/03/01 11:38:00;;;;;;;17.42;12.60;;;10.10;74.10;;;;;;5088261;28;20048;-71
2022/03/01 11:40:28;;;;;;;17.30;11.90;;;10.00;74.30;;;;;;5086565;28;20553;-72
2022/03/01 11:42:54;;;;;;;17.25;11.70;;;10.20;75.00;;;;;;5077613;28;20462;-72
2022/03/01 11:45:20;;;;;;;15.88;11.68;;;10.10;72.80;;;;;;5087929;28;20044;-73
2022/03/01 11:47:45;;;;;;;17.75;11.48;;;10.10;72.90;;;;;;5088294;28;20114;-72
2022/03/01 11:50:17;;;;;;;17.38;12.32;;;10.20;73.40;;;;;;5083876;28;20127;-71
2022/03/01 11:52:53;;;;;;;17.30;11.77;;;10.20;73.50;;;;;;5087443;28;20083;-70
2022/03/01 11:55:19;;;;;;;15.98;11.25;;;10.20;72.70;;;;;;5086030;28;20362;-69
2022/03/01 11:57:45;;;;;;;17.42;12.40;;;10.20;71.90;;;;;;5088391;28;20138;-69
2022/03/01 12:00:15;;;;;;;16.83;12.35;;;10.20;72.50;;;;;;5078992;28;20107;-70
2022/03/01 12:02:47;;;;;;;16.75;12.77;;;10.20;71.80;;;;;;5085476;28;20067;-69
2022/03/01 12:05:22;;;;;;;17.77;12.10;;;10.30;72.30;;;;;;5086034;28;20056;-69
2022/03/01 12:07:48;;;;;;;;;;;10.20;71.30;;;;;;5070922;28;20115;-69
2022/03/01 12:10:21;;;;;;;18.48;12.30;;;10.10;69.90;;;;;;5085523;28;19993;-70
2022/03/01 12:12:47;;;;;;;16.88;11.82;;;9.90;71.10;;;;;;5087965;28;20040;-69
2022/03/01 12:15:13;;;;;;;19.27;12.48;;;10.00;72.50;;;;;;5080469;28;20048;-70
2022/03/01 12:17:44;;;;;;;15.35;11.52;;;9.90;72.50;;;;;;5071184;28;20102;-69
2022/03/01 12:20:12;;;;;;;19.55;12.50;;;9.80;72.40;;;;;;5071623;28;20052;-69
2022/03/01 12:22:59;;;;;;;16.67;11.88;;;9.80;72.80;;;;;;5083850;28;20480;-70
2022/03/01 12:25:26;;;;;;;15.93;11.68;;;9.90;73.10;;;;;;5089930;28;20052;-70
2022/03/01 12:27:53;;;;;;;19.60;12.02;;;9.80;73.30;;;;;;5091197;28;20090;-70
2022/03/01 12:30:21;;;;;;;17.00;11.80;;;9.80;73.00;;;;;;5080690;28;20068;-71
2022/03/01 12:32:56;;;;;;;17.02;11.85;;;9.80;73.50;;;;;;5089809;28;20437;-71
2022/03/01 12:35:23;;;;;;;15.10;11.18;;;9.80;74.00;;;;;;5090249;28;20048;-71